sensor_id;sensor_type;location;lat;lon;timestamp;P1;durP1;ratioP1;P2;durP2;ratioP2
1346;SDS011;667;48.796;9.480;2023-03-01T00:01:49;15.70;;;11.97;;
1346;SDS011;667;48.796;9.480;2023-03-01T00:04:15;18.10;;;12.20;;
1346;SDS011;667;48.796;9.480;2023-03-01T00:06:44;15.90;;;12.00;;
1346;SDS011;667;48.796;9.480;2023-03-01T00:09:11;16.75;;;12.98;;
1346;SDS011;667;48.796;9.480;2023-03-01T00:11:38;17.90;;;12.20;;
1346;SDS011;667;48.796;9.480;2023-03-01T00:14:03;14.60;;;12.17;;
1346;SDS011;667;48.796;9.480;2023-03-01T00:16:33;16.25;;;11.82;;
1346;SDS011;667;48.796;9.480;2023-03-01T00:19:04;16.63;;;12.05;;
1346;SDS011;667;48.796;9.480;2023-03-01T00:21:32;13.77;;;11.50;;
1346;SDS011;667;48.796;9.480;2023-03-01T00:24:00;17.23;;;12.75;;
1346;SDS011;667;48.796;9.480;2023-03-01T00:26:26;14.88;;;11.80;;
1346;SDS011;667;48.796;9.480;2023-03-01T00:28:52;14.10;;;11.03;;
1346;SDS011;667;48.796;9.480;2023-03-01T00:31:19;16.13;;;11.88;;
1346;SDS011;667;48.796;9.480;2023-03-01T00:33:53;15.77;;;11.70;;
1346;SDS011;667;48.796;9.480;2023-03-01T00:36:24;15.30;;;11.30;;
1346;SDS011;667;48.796;9.480;2023-03-01T00:38:51;19.52;;;12.25;;
1346;SDS011;667;48.796;9.480;2023-03-01T00:41:17;19.87;;;12.60;;
1346;SDS011;667;48.796;9.480;2023-03-01T00:43:44;16.50;;;12.90;;
1346;SDS011;667;48.796;9.480;2023-03-01T00:46:11;16.03;;;12.43;;
1346;SDS011;667;48.796;9.480;2023-03-01T00:48:38;16.95;;;12.63;;
1346;SDS011;667;48.796;9.480;2023-03-01T00:51:08;13.00;;;11.53;;
1346;SDS011;667;48.796;9.480;2023-03-01T00:53:35;16.70;;;11.73;;
1346;SDS011;667;48.796;9.480;2023-03-01T00:56:02;15.25;;;11.80;;
1346;SDS011;667;48.796;9.480;2023-03-01T00:58:28;15.98;;;12.23;;
1346;SDS011;667;48.796;9.480;2023-03-01T01:00:54;16.83;;;11.97;;
1346;SDS011;667;48.796;9.480;2023-03-01T01:03:20;14.43;;;11.93;;
1346;SDS011;667;48.796;9.480;2023-03-01T01:05:46;14.95;;;11.82;;
1346;SDS011;667;48.796;9.480;2023-03-01T01:08:12;16.30;;;12.73;;
1346;SDS011;667;48.796;9.480;2023-03-01T01:10:37;15.70;;;12.67;;
1346;SDS011;667;48.796;9.480;2023-03-01T01:13:03;15.60;;;12.10;;
1346;SDS011;667;48.796;9.480;2023-03-01T01:15:29;14.50;;;11.80;;
1346;SDS011;667;48.796;9.480;2023-03-01T01:17:58;17.10;;;12.85;;
1346;SDS011;667;48.796;9.480;2023-03-01T01:20:23;21.83;;;13.27;;
1346;SDS011;667;48.796;9.480;2023-03-01T01:22:49;14.10;;;11.40;;
1346;SDS011;667;48.796;9.480;2023-03-01T01:25:16;18.83;;;12.40;;
1346;SDS011;667;48.796;9.480;2023-03-01T01:27:41;17.20;;;13.23;;
1346;SDS011;667;48.796;9.480;2023-03-01T01:30:07;17.37;;;12.90;;
1346;SDS011;667;48.796;9.480;2023-03-01T01:32:33;18.33;;;12.55;;
1346;SDS011;667;48.796;9.480;2023-03-01T01:34:59;14.73;;;11.67;;
1346;SDS011;667;48.796;9.480;2023-03-01T01:37:24;14.87;;;11.80;;
1346;SDS011;667;48.796;9.480;2023-03-01T01:39:56;17.15;;;12.88;;
1346;SDS011;667;48.796;9.480;2023-03-01T01:42:23;16.00;;;12.23;;
1346;SDS011;667;48.796;9.480;2023-03-01T01:45:15;16.03;;;12.23;;
1346;SDS011;667;48.796;9.480;2023-03-01T01:47:52;21.70;;;13.90;;
1346;SDS011;667;48.796;9.480;2023-03-01T01:50:20;17.27;;;12.70;;
1346;SDS011;667;48.796;9.480;2023-03-01T01:52:46;19.95;;;13.95;;
1346;SDS011;667;48.796;9.480;2023-03-01T01:55:15;22.13;;;12.43;;
1346;SDS011;667;48.796;9.480;2023-03-01T01:57:51;15.77;;;12.88;;
1346;SDS011;667;48.796;9.480;2023-03-01T02:00:27;18.70;;;13.50;;
1346;SDS011;667;48.796;9.480;2023-03-01T02:02:55;16.30;;;12.63;;
1346;SDS011;667;48.796;9.480;2023-03-01T02:05:26;17.40;;;12.35;;
1346;SDS011;667;48.796;9.480;2023-03-01T02:07:54;15.02;;;11.77;;
1346;SDS011;667;48.796;9.480;2023-03-01T02:10:21;16.17;;;12.73;;
1346;SDS011;667;48.796;9.480;2023-03-01T02:12:48;17.95;;;11.90;;
1346;SDS011;667;48.796;9.480;2023-03-01T02:15:14;19.13;;;13.60;;
1346;SDS011;667;48.796;9.480;2023-03-01T02:17:40;20.10;;;12.53;;
1346;SDS011;667;48.796;9.480;2023-03-01T02:23:10;18.42;;;12.52;;
1346;SDS011;667;48.796;9.480;2023-03-01T02:30:40;15.88;;;12.45;;
1346;SDS011;667;48.796;9.480;2023-03-01T02:33:27;15.93;;;13.00;;
1346;SDS011;667;48.796;9.480;2023-03-01T02:35:54;18.55;;;13.00;;
1346;SDS011;667;48.796;9.480;2023-03-01T02:38:20;17.90;;;12.73;;
1346;SDS011;667;48.796;9.480;2023-03-01T02:40:47;18.08;;;14.38;;
1346;SDS011;667;48.796;9.480;2023-03-01T02:43:15;17.73;;;13.05;;
1346;SDS011;667;48.796;9.480;2023-03-01T02:45:49;20.90;;;13.88;;
1346;SDS011;667;48.796;9.480;2023-03-01T02:48:16;15.32;;;12.52;;
1346;SDS011;667;48.796;9.480;2023-03-01T02:50:53;18.23;;;13.25;;
1346;SDS011;667;48.796;9.480;2023-03-01T02:53:41;19.02;;;13.90;;
1346;SDS011;667;48.796;9.480;2023-03-01T02:56:21;17.40;;;13.23;;
1346;SDS011;667;48.796;9.480;2023-03-01T02:58:47;17.00;;;13.03;;
1346;SDS011;667;48.796;9.480;2023-03-01T03:01:16;18.35;;;13.73;;
1346;SDS011;667;48.796;9.480;2023-03-01T03:03:43;17.25;;;12.65;;
1346;SDS011;667;48.796;9.480;2023-03-01T03:06:09;18.80;;;12.60;;
1346;SDS011;667;48.796;9.480;2023-03-01T03:08:35;22.37;;;14.00;;
1346;SDS011;667;48.796;9.480;2023-03-01T03:11:00;19.77;;;13.20;;
1346;SDS011;667;48.796;9.480;2023-03-01T03:13:26;20.42;;;13.90;;
1346;SDS011;667;48.796;9.480;2023-03-01T03:15:53;18.98;;;14.50;;
1346;SDS011;667;48.796;9.480;2023-03-01T03:18:19;17.73;;;13.88;;
1346;SDS011;667;48.796;9.480;2023-03-01T03:20:45;18.20;;;13.25;;
1346;SDS011;667;48.796;9.480;2023-03-01T03:23:11;18.50;;;13.40;;
1346;SDS011;667;48.796;9.480;2023-03-01T03:25:37;22.23;;;13.20;;
1346;SDS011;667;48.796;9.480;2023-03-01T03:28:03;17.13;;;13.27;;
1346;SDS011;667;48.796;9.480;2023-03-01T03:30:34;20.52;;;14.25;;
1346;SDS011;667;48.796;9.480;2023-03-01T03:33:03;21.10;;;15.77;;
1346;SDS011;667;48.796;9.480;2023-03-01T03:35:32;20.15;;;14.25;;
1346;SDS011;667;48.796;9.480;2023-03-01T03:38:04;17.83;;;14.35;;
1346;SDS011;667;48.796;9.480;2023-03-01T03:40:38;17.73;;;13.52;;
1346;SDS011;667;48.796;9.480;2023-03-01T03:43:06;17.52;;;13.38;;
1346;SDS011;667;48.796;9.480;2023-03-01T03:45:36;21.77;;;15.13;;
1346;SDS011;667;48.796;9.480;2023-03-01T03:48:03;19.20;;;15.20;;
1346;SDS011;667;48.796;9.480;2023-03-01T03:50:31;18.70;;;14.57;;
1346;SDS011;667;48.796;9.480;2023-03-01T03:52:56;20.17;;;14.70;;
1346;SDS011;667;48.796;9.480;2023-03-01T03:55:22;19.53;;;14.97;;
1346;SDS011;667;48.796;9.480;2023-03-01T03:57:48;18.70;;;13.57;;
1346;SDS011;667;48.796;9.480;2023-03-01T04:00:19;22.83;;;13.98;;
1346;SDS011;667;48.796;9.480;2023-03-01T04:02:46;22.83;;;16.35;;
1346;SDS011;667;48.796;9.480;2023-03-01T04:05:14;19.50;;;15.65;;
1346;SDS011;667;48.796;9.480;2023-03-01T04:07:41;23.83;;;15.63;;
1346;SDS011;667;48.796;9.480;2023-03-01T04:10:09;20.88;;;15.65;;
1346;SDS011;667;48.796;9.480;2023-03-01T04:12:36;19.08;;;13.07;;
1346;SDS011;667;48.796;9.480;2023-03-01T04:15:03;22.93;;;16.80;;
1346;SDS011;667;48.796;9.480;2023-03-01T04:17:37;21.33;;;15.02;;
1346;SDS011;667;48.796;9.480;2023-03-01T04:20:14;20.20;;;15.07;;
1346;SDS011;667;48.796;9.480;2023-03-01T04:22:43;20.40;;;15.35;;
1346;SDS011;667;48.796;9.480;2023-03-01T04:25:12;20.13;;;15.45;;
1346;SDS011;667;48.796;9.480;2023-03-01T04:27:39;20.08;;;15.88;;
1346;SDS011;667;48.796;9.480;2023-03-01T04:30:06;21.02;;;15.48;;
1346;SDS011;667;48.796;9.480;2023-03-01T04:32:33;18.38;;;15.27;;
1346;SDS011;667;48.796;9.480;2023-03-01T04:34:58;21.17;;;15.97;;
1346;SDS011;667;48.796;9.480;2023-03-01T04:37:24;21.23;;;15.50;;
1346;SDS011;667;48.796;9.480;2023-03-01T04:39:50;24.53;;;16.13;;
1346;SDS011;667;48.796;9.480;2023-03-01T04:42:16;20.40;;;15.27;;
1346;SDS011;667;48.796;9.480;2023-03-01T04:44:42;20.40;;;14.80;;
1346;SDS011;667;48.796;9.480;2023-03-01T04:47:08;21.23;;;15.55;;
1346;SDS011;667;48.796;9.480;2023-03-01T04:49:34;27.47;;;16.63;;
1346;SDS011;667;48.796;9.480;2023-03-01T04:51:59;22.50;;;15.13;;
1346;SDS011;667;48.796;9.480;2023-03-01T04:54:27;22.58;;;15.32;;
1346;SDS011;667;48.796;9.480;2023-03-01T04:56:53;26.95;;;16.90;;
1346;SDS011;667;48.796;9.480;2023-03-01T04:59:19;20.43;;;15.40;;
1346;SDS011;667;48.796;9.480;2023-03-01T05:01:47;22.45;;;15.85;;
1346;SDS011;667;48.796;9.480;2023-03-01T05:04:16;21.40;;;15.30;;
1346;SDS011;667;48.796;9.480;2023-03-01T05:06:42;19.23;;;14.47;;
1346;SDS011;667;48.796;9.480;2023-03-01T05:09:08;19.10;;;14.80;;
1346;SDS011;667;48.796;9.480;2023-03-01T05:11:34;19.83;;;15.83;;
1346;SDS011;667;48.796;9.480;2023-03-01T05:14:07;21.40;;;15.32;;
1346;SDS011;667;48.796;9.480;2023-03-01T05:16:34;20.95;;;14.70;;
1346;SDS011;667;48.796;9.480;2023-03-01T05:19:01;23.63;;;16.77;;
1346;SDS011;667;48.796;9.480;2023-03-01T05:21:36;19.65;;;14.98;;
1346;SDS011;667;48.796;9.480;2023-03-01T05:24:22;22.98;;;15.30;;
1346;SDS011;667;48.796;9.480;2023-03-01T05:26:48;19.50;;;16.10;;
1346;SDS011;667;48.796;9.480;2023-03-01T05:29:16;21.10;;;15.85;;
1346;SDS011;667;48.796;9.480;2023-03-01T05:31:43;21.15;;;15.32;;
1346;SDS011;667;48.796;9.480;2023-03-01T05:34:08;19.17;;;15.23;;
1346;SDS011;667;48.796;9.480;2023-03-01T05:36:34;20.37;;;15.83;;
1346;SDS011;667;48.796;9.480;2023-03-01T05:38:59;22.43;;;15.27;;
1346;SDS011;667;48.796;9.480;2023-03-01T05:41:25;19.57;;;14.73;;
1346;SDS011;667;48.796;9.480;2023-03-01T05:43:51;22.63;;;15.07;;
1346;SDS011;667;48.796;9.480;2023-03-01T05:46:16;22.77;;;16.90;;
1346;SDS011;667;48.796;9.480;2023-03-01T05:48:42;22.30;;;15.60;;
1346;SDS011;667;48.796;9.480;2023-03-01T05:51:08;22.65;;;15.50;;
1346;SDS011;667;48.796;9.480;2023-03-01T05:53:34;20.87;;;16.10;;
1346;SDS011;667;48.796;9.480;2023-03-01T05:55:59;23.23;;;16.53;;
1346;SDS011;667;48.796;9.480;2023-03-01T05:58:28;28.02;;;17.73;;
1346;SDS011;667;48.796;9.480;2023-03-01T06:00:54;23.17;;;17.20;;
1346;SDS011;667;48.796;9.480;2023-03-01T06:03:19;21.33;;;17.03;;
1346;SDS011;667;48.796;9.480;2023-03-01T06:05:45;27.57;;;19.37;;
1346;SDS011;667;48.796;9.480;2023-03-01T06:08:11;24.83;;;17.93;;
1346;SDS011;667;48.796;9.480;2023-03-01T06:10:37;20.67;;;15.02;;
1346;SDS011;667;48.796;9.480;2023-03-01T06:13:03;20.93;;;15.50;;
1346;SDS011;667;48.796;9.480;2023-03-01T06:15:29;26.10;;;17.90;;
1346;SDS011;667;48.796;9.480;2023-03-01T06:17:55;24.77;;;16.90;;
1346;SDS011;667;48.796;9.480;2023-03-01T06:20:27;24.33;;;16.60;;
1346;SDS011;667;48.796;9.480;2023-03-01T06:22:56;20.02;;;15.68;;
1346;SDS011;667;48.796;9.480;2023-03-01T06:25:22;20.88;;;15.48;;
1346;SDS011;667;48.796;9.480;2023-03-01T06:27:49;22.60;;;15.52;;
1346;SDS011;667;48.796;9.480;2023-03-01T06:30:15;22.07;;;15.83;;
1346;SDS011;667;48.796;9.480;2023-03-01T06:32:43;19.40;;;15.20;;
1346;SDS011;667;48.796;9.480;2023-03-01T06:35:10;24.05;;;16.33;;
1346;SDS011;667;48.796;9.480;2023-03-01T06:37:36;18.67;;;14.30;;
1346;SDS011;667;48.796;9.480;2023-03-01T06:40:03;22.50;;;15.73;;
1346;SDS011;667;48.796;9.480;2023-03-01T06:42:33;23.35;;;16.42;;
1346;SDS011;667;48.796;9.480;2023-03-01T06:44:59;19.42;;;14.95;;
1346;SDS011;667;48.796;9.480;2023-03-01T06:47:25;21.57;;;16.07;;
1346;SDS011;667;48.796;9.480;2023-03-01T06:49:50;20.90;;;14.63;;
1346;SDS011;667;48.796;9.480;2023-03-01T06:52:16;23.63;;;15.10;;
1346;SDS011;667;48.796;9.480;2023-03-01T06:54:41;20.03;;;15.60;;
1346;SDS011;667;48.796;9.480;2023-03-01T06:57:07;21.00;;;14.67;;
1346;SDS011;667;48.796;9.480;2023-03-01T06:59:32;21.87;;;15.60;;
1346;SDS011;667;48.796;9.480;2023-03-01T07:01:58;19.97;;;13.87;;
1346;SDS011;667;48.796;9.480;2023-03-01T07:04:24;23.23;;;14.87;;
1346;SDS011;667;48.796;9.480;2023-03-01T07:06:49;21.20;;;15.40;;
1346;SDS011;667;48.796;9.480;2023-03-01T07:09:20;22.70;;;15.38;;
1346;SDS011;667;48.796;9.480;2023-03-01T07:11:49;21.83;;;15.15;;
1346;SDS011;667;48.796;9.480;2023-03-01T07:14:15;22.35;;;16.10;;
1346;SDS011;667;48.796;9.480;2023-03-01T07:16:41;20.97;;;14.90;;
1346;SDS011;667;48.796;9.480;2023-03-01T07:19:06;19.70;;;15.63;;
1346;SDS011;667;48.796;9.480;2023-03-01T07:21:32;23.40;;;16.07;;
1346;SDS011;667;48.796;9.480;2023-03-01T07:23:57;21.23;;;15.33;;
1346;SDS011;667;48.796;9.480;2023-03-01T07:26:23;24.57;;;15.87;;
1346;SDS011;667;48.796;9.480;2023-03-01T07:28:48;20.87;;;16.90;;
1346;SDS011;667;48.796;9.480;2023-03-01T07:31:14;24.50;;;18.03;;
1346;SDS011;667;48.796;9.480;2023-03-01T07:33:40;21.50;;;16.67;;
1346;SDS011;667;48.796;9.480;2023-03-01T07:36:06;23.70;;;18.03;;
1346;SDS011;667;48.796;9.480;2023-03-01T07:38:32;24.90;;;18.35;;
1346;SDS011;667;48.796;9.480;2023-03-01T07:40:58;29.55;;;18.25;;
1346;SDS011;667;48.796;9.480;2023-03-01T07:43:26;23.20;;;16.90;;
1346;SDS011;667;48.796;9.480;2023-03-01T07:45:52;22.27;;;16.20;;
1346;SDS011;667;48.796;9.480;2023-03-01T07:48:18;28.77;;;19.23;;
1346;SDS011;667;48.796;9.480;2023-03-01T07:50:43;21.20;;;16.50;;
1346;SDS011;667;48.796;9.480;2023-03-01T07:53:09;23.50;;;17.90;;
1346;SDS011;667;48.796;9.480;2023-03-01T07:55:35;22.40;;;16.27;;
1346;SDS011;667;48.796;9.480;2023-03-01T07:58:03;26.83;;;18.98;;
1346;SDS011;667;48.796;9.480;2023-03-01T08:00:29;25.35;;;18.27;;
1346;SDS011;667;48.796;9.480;2023-03-01T08:02:54;23.30;;;16.77;;
1346;SDS011;667;48.796;9.480;2023-03-01T08:05:23;26.02;;;18.70;;
1346;SDS011;667;48.796;9.480;2023-03-01T08:07:49;24.07;;;17.80;;
1346;SDS011;667;48.796;9.480;2023-03-01T08:10:14;23.50;;;17.77;;
1346;SDS011;667;48.796;9.480;2023-03-01T08:12:40;23.00;;;17.60;;
1346;SDS011;667;48.796;9.480;2023-03-01T08:15:05;26.20;;;17.70;;
1346;SDS011;667;48.796;9.480;2023-03-01T08:17:31;23.60;;;16.92;;
1346;SDS011;667;48.796;9.480;2023-03-01T08:19:58;27.15;;;17.77;;
1346;SDS011;667;48.796;9.480;2023-03-01T08:22:23;26.10;;;17.80;;
1346;SDS011;667;48.796;9.480;2023-03-01T08:24:49;23.10;;;16.43;;
1346;SDS011;667;48.796;9.480;2023-03-01T08:27:15;24.63;;;17.93;;
1346;SDS011;667;48.796;9.480;2023-03-01T08:29:41;24.58;;;16.05;;
1346;SDS011;667;48.796;9.480;2023-03-01T08:32:07;23.40;;;17.77;;
1346;SDS011;667;48.796;9.480;2023-03-01T08:34:32;27.40;;;19.00;;
1346;SDS011;667;48.796;9.480;2023-03-01T08:37:00;26.95;;;17.50;;
1346;SDS011;667;48.796;9.480;2023-03-01T08:39:26;23.63;;;17.83;;
1346;SDS011;667;48.796;9.480;2023-03-01T08:41:52;27.10;;;19.77;;
1346;SDS011;667;48.796;9.480;2023-03-01T08:44:17;26.80;;;18.33;;
1346;SDS011;667;48.796;9.480;2023-03-01T08:46:43;23.10;;;18.50;;
1346;SDS011;667;48.796;9.480;2023-03-01T08:49:14;28.85;;;21.05;;
1346;SDS011;667;48.796;9.480;2023-03-01T08:51:43;25.33;;;21.05;;
1346;SDS011;667;48.796;9.480;2023-03-01T08:54:11;23.80;;;17.92;;
1346;SDS011;667;48.796;9.480;2023-03-01T08:56:39;24.70;;;17.83;;
1346;SDS011;667;48.796;9.480;2023-03-01T08:59:05;24.23;;;18.10;;
1346;SDS011;667;48.796;9.480;2023-03-01T09:01:31;33.20;;;23.40;;
1346;SDS011;667;48.796;9.480;2023-03-01T09:03:56;27.80;;;19.90;;
1346;SDS011;667;48.796;9.480;2023-03-01T09:06:22;23.03;;;18.43;;
1346;SDS011;667;48.796;9.480;2023-03-01T09:08:48;27.73;;;18.43;;
1346;SDS011;667;48.796;9.480;2023-03-01T09:11:15;21.45;;;18.30;;
1346;SDS011;667;48.796;9.480;2023-03-01T09:13:43;22.13;;;17.58;;
1346;SDS011;667;48.796;9.480;2023-03-01T09:16:10;23.45;;;18.65;;
1346;SDS011;667;48.796;9.480;2023-03-01T09:18:37;23.30;;;18.70;;
1346;SDS011;667;48.796;9.480;2023-03-01T09:21:03;24.50;;;18.33;;
1346;SDS011;667;48.796;9.480;2023-03-01T09:23:37;21.83;;;17.20;;
1346;SDS011;667;48.796;9.480;2023-03-01T09:26:05;22.67;;;17.63;;
1346;SDS011;667;48.796;9.480;2023-03-01T09:28:35;20.17;;;16.52;;
1346;SDS011;667;48.796;9.480;2023-03-01T09:31:01;22.20;;;18.33;;
1346;SDS011;667;48.796;9.480;2023-03-01T09:33:28;22.83;;;18.17;;
1346;SDS011;667;48.796;9.480;2023-03-01T09:35:56;23.90;;;18.30;;
1346;SDS011;667;48.796;9.480;2023-03-01T09:38:25;22.98;;;18.25;;
1346;SDS011;667;48.796;9.480;2023-03-01T09:40:51;21.52;;;17.08;;
1346;SDS011;667;48.796;9.480;2023-03-01T09:46:18;21.60;;;16.58;;
1346;SDS011;667;48.796;9.480;2023-03-01T09:48:57;22.35;;;16.15;;
1346;SDS011;667;48.796;9.480;2023-03-01T09:51:32;21.83;;;17.60;;
1346;SDS011;667;48.796;9.480;2023-03-01T09:54:03;19.83;;;16.58;;
1346;SDS011;667;48.796;9.480;2023-03-01T09:59:37;20.80;;;17.17;;
1346;SDS011;667;48.796;9.480;2023-03-01T10:04:52;22.77;;;17.40;;
1346;SDS011;667;48.796;9.480;2023-03-01T10:09:52;23.92;;;17.67;;
1346;SDS011;667;48.796;9.480;2023-03-01T10:12:19;21.97;;;17.87;;
1346;SDS011;667;48.796;9.480;2023-03-01T10:14:54;23.30;;;17.75;;
1346;SDS011;667;48.796;9.480;2023-03-01T10:19:52;21.73;;;17.50;;
1346;SDS011;667;48.796;9.480;2023-03-01T10:22:20;20.85;;;16.77;;
1346;SDS011;667;48.796;9.480;2023-03-01T10:24:52;20.98;;;17.40;;
1346;SDS011;667;48.796;9.480;2023-03-01T10:32:19;18.25;;;16.00;;
1346;SDS011;667;48.796;9.480;2023-03-01T10:34:46;19.60;;;16.45;;
1346;SDS011;667;48.796;9.480;2023-03-01T10:37:19;22.63;;;16.95;;
1346;SDS011;667;48.796;9.480;2023-03-01T10:40:08;20.45;;;16.77;;
1346;SDS011;667;48.796;9.480;2023-03-01T10:48:10;19.08;;;16.33;;
1346;SDS011;667;48.796;9.480;2023-03-01T10:50:39;20.17;;;17.10;;
1346;SDS011;667;48.796;9.480;2023-03-01T10:56:09;18.05;;;15.45;;
1346;SDS011;667;48.796;9.480;2023-03-01T10:58:38;20.08;;;16.02;;
1346;SDS011;667;48.796;9.480;2023-03-01T11:01:23;18.23;;;16.23;;
1346;SDS011;667;48.796;9.480;2023-03-01T11:06:32;19.75;;;16.80;;
1346;SDS011;667;48.796;9.480;2023-03-01T11:09:13;18.80;;;15.38;;
1346;SDS011;667;48.796;9.480;2023-03-01T11:11:42;19.00;;;16.00;;
1346;SDS011;667;48.796;9.480;2023-03-01T11:14:13;21.10;;;16.30;;
1346;SDS011;667;48.796;9.480;2023-03-01T11:16:43;19.05;;;16.35;;
1346;SDS011;667;48.796;9.480;2023-03-01T11:21:41;17.20;;;15.33;;
1346;SDS011;667;48.796;9.480;2023-03-01T11:24:17;19.00;;;15.13;;
1346;SDS011;667;48.796;9.480;2023-03-01T11:26:45;18.70;;;15.30;;
1346;SDS011;667;48.796;9.480;2023-03-01T11:29:26;21.88;;;15.23;;
1346;SDS011;667;48.796;9.480;2023-03-01T11:32:02;18.63;;;15.55;;
1346;SDS011;667;48.796;9.480;2023-03-01T11:34:37;17.77;;;14.63;;
1346;SDS011;667;48.796;9.480;2023-03-01T11:37:10;17.75;;;15.85;;
1346;SDS011;667;48.796;9.480;2023-03-01T11:39:50;21.17;;;16.15;;
1346;SDS011;667;48.796;9.480;2023-03-01T11:42:35;18.67;;;14.90;;
1346;SDS011;667;48.796;9.480;2023-03-01T11:45:13;18.10;;;15.18;;
1346;SDS011;667;48.796;9.480;2023-03-01T11:50:23;21.88;;;15.65;;
1346;SDS011;667;48.796;9.480;2023-03-01T12:01:19;21.67;;;16.20;;
1346;SDS011;667;48.796;9.480;2023-03-01T12:09:13;19.70;;;14.55;;
1346;SDS011;667;48.796;9.480;2023-03-01T12:11:49;18.40;;;15.50;;
1346;SDS011;667;48.796;9.480;2023-03-01T12:14:40;19.33;;;14.73;;
1346;SDS011;667;48.796;9.480;2023-03-01T12:17:54;21.92;;;16.95;;
1346;SDS011;667;48.796;9.480;2023-03-01T12:20:05;18.92;;;15.35;;
1346;SDS011;667;48.796;9.480;2023-03-01T12:28:25;19.55;;;15.70;;
1346;SDS011;667;48.796;9.480;2023-03-01T12:38:41;17.15;;;15.27;;
1346;SDS011;667;48.796;9.480;2023-03-01T12:47:02;18.00;;;14.63;;
1346;SDS011;667;48.796;9.480;2023-03-01T12:50:17;20.35;;;16.20;;
1346;SDS011;667;48.796;9.480;2023-03-01T12:55:29;18.45;;;16.08;;
1346;SDS011;667;48.796;9.480;2023-03-01T13:00:59;16.35;;;14.00;;
1346;SDS011;667;48.796;9.480;2023-03-01T13:12:02;18.73;;;14.25;;
1346;SDS011;667;48.796;9.480;2023-03-01T13:16:56;16.60;;;13.55;;
1346;SDS011;667;48.796;9.480;2023-03-01T13:19:23;15.50;;;13.80;;
1346;SDS011;667;48.796;9.480;2023-03-01T13:21:51;16.98;;;13.27;;
1346;SDS011;667;48.796;9.480;2023-03-01T13:35:00;18.85;;;14.52;;
1346;SDS011;667;48.796;9.480;2023-03-01T13:37:38;20.70;;;14.15;;
1346;SDS011;667;48.796;9.480;2023-03-01T13:40:05;13.98;;;12.48;;
1346;SDS011;667;48.796;9.480;2023-03-01T13:42:47;16.63;;;13.05;;
1346;SDS011;667;48.796;9.480;2023-03-01T13:47:52;15.88;;;12.40;;
1346;SDS011;667;48.796;9.480;2023-03-01T13:50:23;18.27;;;14.85;;
1346;SDS011;667;48.796;9.480;2023-03-01T13:52:52;17.67;;;14.55;;
1346;SDS011;667;48.796;9.480;2023-03-01T13:55:27;17.40;;;13.70;;
1346;SDS011;667;48.796;9.480;2023-03-01T13:58:21;18.10;;;13.77;;
1346;SDS011;667;48.796;9.480;2023-03-01T14:00:47;15.73;;;13.75;;
1346;SDS011;667;48.796;9.480;2023-03-01T14:03:19;18.25;;;13.73;;
1346;SDS011;667;48.796;9.480;2023-03-01T14:06:02;16.40;;;13.30;;
1346;SDS011;667;48.796;9.480;2023-03-01T14:08:31;17.45;;;14.40;;
1346;SDS011;667;48.796;9.480;2023-03-01T14:14:08;17.92;;;14.60;;
1346;SDS011;667;48.796;9.480;2023-03-01T14:19:26;16.13;;;12.80;;
1346;SDS011;667;48.796;9.480;2023-03-01T14:24:46;17.25;;;15.05;;
1346;SDS011;667;48.796;9.480;2023-03-01T14:27:14;16.48;;;13.85;;
1346;SDS011;667;48.796;9.480;2023-03-01T14:29:41;18.35;;;13.73;;
1346;SDS011;667;48.796;9.480;2023-03-01T14:32:11;17.80;;;14.73;;
1346;SDS011;667;48.796;9.480;2023-03-01T14:34:49;17.83;;;14.15;;
1346;SDS011;667;48.796;9.480;2023-03-01T14:39:43;17.90;;;13.50;;
1346;SDS011;667;48.796;9.480;2023-03-01T14:42:09;17.53;;;14.90;;
1346;SDS011;667;48.796;9.480;2023-03-01T14:44:36;16.33;;;14.55;;
1346;SDS011;667;48.796;9.480;2023-03-01T14:47:02;18.42;;;14.25;;
1346;SDS011;667;48.796;9.480;2023-03-01T14:49:30;18.85;;;14.75;;
1346;SDS011;667;48.796;9.480;2023-03-01T14:52:03;17.80;;;14.07;;
1346;SDS011;667;48.796;9.480;2023-03-01T14:57:16;17.40;;;14.27;;
1346;SDS011;667;48.796;9.480;2023-03-01T14:59:47;15.90;;;13.68;;
1346;SDS011;667;48.796;9.480;2023-03-01T15:02:17;18.85;;;14.20;;
1346;SDS011;667;48.796;9.480;2023-03-01T15:04:54;16.13;;;13.60;;
1346;SDS011;667;48.796;9.480;2023-03-01T15:07:22;18.20;;;14.85;;
1346;SDS011;667;48.796;9.480;2023-03-01T15:09:54;19.42;;;16.00;;
1346;SDS011;667;48.796;9.480;2023-03-01T15:15:18;20.70;;;16.33;;
1346;SDS011;667;48.796;9.480;2023-03-01T15:17:56;23.52;;;16.13;;
1346;SDS011;667;48.796;9.480;2023-03-01T15:20:24;20.80;;;16.30;;
1346;SDS011;667;48.796;9.480;2023-03-01T15:22:53;20.88;;;15.40;;
1346;SDS011;667;48.796;9.480;2023-03-01T15:25:21;20.98;;;16.10;;
1346;SDS011;667;48.796;9.480;2023-03-01T15:27:49;20.02;;;15.07;;
1346;SDS011;667;48.796;9.480;2023-03-01T15:30:30;17.92;;;14.63;;
1346;SDS011;667;48.796;9.480;2023-03-01T15:33:18;20.70;;;15.20;;
1346;SDS011;667;48.796;9.480;2023-03-01T15:35:57;17.75;;;14.45;;
1346;SDS011;667;48.796;9.480;2023-03-01T15:38:52;20.80;;;15.70;;
1346;SDS011;667;48.796;9.480;2023-03-01T15:41:23;18.65;;;14.57;;
1346;SDS011;667;48.796;9.480;2023-03-01T15:43:50;20.92;;;15.48;;
1346;SDS011;667;48.796;9.480;2023-03-01T15:46:24;22.23;;;16.30;;
1346;SDS011;667;48.796;9.480;2023-03-01T15:49:05;22.45;;;17.30;;
1346;SDS011;667;48.796;9.480;2023-03-01T15:52:05;19.77;;;15.57;;
1346;SDS011;667;48.796;9.480;2023-03-01T15:54:38;21.58;;;17.05;;
1346;SDS011;667;48.796;9.480;2023-03-01T15:57:07;19.65;;;16.02;;
1346;SDS011;667;48.796;9.480;2023-03-01T15:59:38;23.98;;;15.68;;
1346;SDS011;667;48.796;9.480;2023-03-01T16:02:08;23.40;;;15.27;;
1346;SDS011;667;48.796;9.480;2023-03-01T16:04:37;18.02;;;15.38;;
1346;SDS011;667;48.796;9.480;2023-03-01T16:07:03;23.60;;;16.40;;
1346;SDS011;667;48.796;9.480;2023-03-01T16:09:29;23.83;;;15.87;;
1346;SDS011;667;48.796;9.480;2023-03-01T16:11:55;22.40;;;17.50;;
1346;SDS011;667;48.796;9.480;2023-03-01T16:14:20;20.30;;;15.40;;
1346;SDS011;667;48.796;9.480;2023-03-01T16:16:47;19.15;;;15.43;;
1346;SDS011;667;48.796;9.480;2023-03-01T16:19:13;19.35;;;15.63;;
1346;SDS011;667;48.796;9.480;2023-03-01T16:21:39;20.02;;;15.80;;
1346;SDS011;667;48.796;9.480;2023-03-01T16:24:05;21.33;;;16.13;;
1346;SDS011;667;48.796;9.480;2023-03-01T16:26:31;20.20;;;15.90;;
1346;SDS011;667;48.796;9.480;2023-03-01T16:28:57;20.07;;;16.00;;
1346;SDS011;667;48.796;9.480;2023-03-01T16:31:23;22.63;;;17.10;;
1346;SDS011;667;48.796;9.480;2023-03-01T16:33:53;20.13;;;15.63;;
1346;SDS011;667;48.796;9.480;2023-03-01T16:36:20;20.20;;;15.75;;
1346;SDS011;667;48.796;9.480;2023-03-01T16:38:48;19.05;;;15.85;;
1346;SDS011;667;48.796;9.480;2023-03-01T16:41:14;17.63;;;14.80;;
1346;SDS011;667;48.796;9.480;2023-03-01T16:43:41;20.27;;;15.82;;
1346;SDS011;667;48.796;9.480;2023-03-01T16:46:11;22.85;;;15.48;;
1346;SDS011;667;48.796;9.480;2023-03-01T16:48:48;19.90;;;16.70;;
1346;SDS011;667;48.796;9.480;2023-03-01T16:51:14;20.48;;;15.25;;
1346;SDS011;667;48.796;9.480;2023-03-01T16:53:40;19.15;;;15.55;;
1346;SDS011;667;48.796;9.480;2023-03-01T16:56:07;20.73;;;16.50;;
1346;SDS011;667;48.796;9.480;2023-03-01T16:58:35;18.58;;;16.00;;
1346;SDS011;667;48.796;9.480;2023-03-01T17:01:05;21.70;;;16.70;;
1346;SDS011;667;48.796;9.480;2023-03-01T17:03:39;18.27;;;14.05;;
1346;SDS011;667;48.796;9.480;2023-03-01T17:06:06;22.30;;;14.50;;
1346;SDS011;667;48.796;9.480;2023-03-01T17:08:34;24.95;;;16.08;;
1346;SDS011;667;48.796;9.480;2023-03-01T17:13:33;21.73;;;15.98;;
1346;SDS011;667;48.796;9.480;2023-03-01T17:16:00;18.55;;;13.95;;
1346;SDS011;667;48.796;9.480;2023-03-01T17:18:28;19.27;;;15.90;;